Terminal Aerodrome Forecast
Issued by NWS

Current Version | Previous Version | Text Only | Print | Product List | Glossary On
Versions: 1 2 3 4 5 6 7 8 9 10 11 12 13 14 15 16 17
000
FTUS45 KBOI 302344
TAFJER
TAF
KJER 302344Z 3100/3124 28020G30KT 2SM BR VCSH OVC002
     FM310600 24018KT 2SM BR VCSH OVC002
     FM311600 24015G20KT P6SM SCT010 BKN080=

USA.gov is the U.S. government's official web portal to all federal, state and local government web resources and services.